createdAt,value
2022-12-27T00:00:14.459Z,100570.94
2022-12-27T00:02:43.956Z,100567.50
2022-12-27T00:05:13.384Z,100567.91
2022-12-27T00:07:42.464Z,100571.13
2022-12-27T00:10:12.488Z,100556.59
2022-12-27T00:12:41.899Z,100553.16
2022-12-27T00:15:13.064Z,100563.03
2022-12-27T00:17:42.136Z,100557.44
2022-12-27T00:20:12.117Z,100551.03
2022-12-27T00:22:41.494Z,100554.69
2022-12-27T00:25:11.692Z,100548.69
2022-12-27T00:27:40.724Z,100540.56
2022-12-27T00:30:10.988Z,100538.03
2022-12-27T00:32:43.139Z,100531.31
2022-12-27T00:35:12.105Z,100527.66
2022-12-27T00:37:41.328Z,100524.63
2022-12-27T00:40:11.847Z,100525.53
2022-12-27T00:42:41.795Z,100525.31
2022-12-27T00:45:12.076Z,100531.53
2022-12-27T00:47:43.470Z,100532.03
2022-12-27T00:50:12.464Z,100532.53
2022-12-27T00:52:41.446Z,100533.19
2022-12-27T00:55:11.901Z,100536.44
2022-12-27T00:57:42.914Z,100527.88
2022-12-27T01:00:13.266Z,100523.25
2022-12-27T01:02:43.694Z,100516.31
2022-12-27T01:05:12.706Z,100513.56
2022-12-27T01:07:41.737Z,100503.81
2022-12-27T01:10:11.089Z,100503.59
2022-12-27T01:12:41.691Z,100500.78
2022-12-27T01:15:11.981Z,100494.81
2022-12-27T01:17:41.250Z,100482.81
2022-12-27T01:20:12.413Z,100483.97
2022-12-27T01:22:41.999Z,100477.03
2022-12-27T01:25:11.207Z,100469.44
2022-12-27T01:27:41.695Z,100463.66
2022-12-27T01:30:11.955Z,100461.81
2022-12-27T01:32:40.920Z,100459.47
2022-12-27T01:35:11.916Z,100454.63
2022-12-27T01:37:40.980Z,100453.06
2022-12-27T01:40:11.341Z,100448.00
2022-12-27T01:42:55.850Z,100446.09
2022-12-27T01:45:27.058Z,100449.34
2022-12-27T01:48:01.858Z,100442.66
2022-12-27T01:50:35.541Z,100435.53
2022-12-27T01:53:10.179Z,100438.28
2022-12-27T01:55:44.062Z,100433.88
2022-12-27T01:58:16.581Z,100434.34
2022-12-27T02:00:49.122Z,100423.53
2022-12-27T02:03:23.573Z,100424.28
2022-12-27T02:05:54.722Z,100421.72
2022-12-27T02:08:35.063Z,100416.16
2022-12-27T02:11:05.170Z,100405.31
2022-12-27T02:13:38.591Z,100415.66
2022-12-27T02:16:13.391Z,100407.41
2022-12-27T02:18:42.885Z,100404.19
2022-12-27T02:21:40.168Z,100404.19
2022-12-27T02:24:31.683Z,100407.41
2022-12-27T02:27:05.985Z,100409.88
2022-12-27T02:29:49.092Z,100405.50
2022-12-27T02:32:25.625Z,100411.47
2022-12-27T02:35:04.281Z,100404.56
2022-12-27T02:37:36.573Z,100396.28
2022-12-27T02:40:26.705Z,100397.19
2022-12-27T02:43:13.984Z,100394.66
2022-12-27T02:46:09.134Z,100392.19
2022-12-27T02:48:55.596Z,100385.25
2022-12-27T02:51:56.619Z,100372.09
2022-12-27T02:55:02.510Z,100381.75
2022-12-27T02:57:40.675Z,100371.34
2022-12-27T03:00:32.355Z,100374.78
2022-12-27T03:03:30.583Z,100377.81
2022-12-27T03:06:43.146Z,100374.88
2022-12-27T03:09:55.763Z,100364.72
2022-12-27T03:12:50.793Z,100361.75
2022-12-27T03:15:51.232Z,100360.75
2022-12-27T03:18:30.010Z,100355.69
2022-12-27T03:21:18.339Z,100341.16
2022-12-27T03:24:12.939Z,100344.13
2022-12-27T03:26:46.270Z,100341.38
2022-12-27T03:29:33.961Z,100333.50
2022-12-27T03:32:23.826Z,100331.44
2022-12-27T03:34:57.390Z,100330.94
2022-12-27T03:37:47.675Z,100321.91
2022-12-27T03:40:24.798Z,100319.63
2022-12-27T03:43:12.816Z,100312.00
2022-12-27T03:46:14.793Z,100306.94
2022-12-27T03:48:56.001Z,100307.13
2022-12-27T03:51:30.843Z,100299.31
2022-12-27T03:54:07.216Z,100296.13
2022-12-27T03:56:37.755Z,100289.19
2022-12-27T03:59:07.905Z,100289.88
2022-12-27T04:01:37.108Z,100293.09
2022-12-27T04:04:06.378Z,100288.03
2022-12-27T04:06:36.933Z,100277.13
2022-12-27T04:09:23.292Z,100274.38
2022-12-27T04:12:09.535Z,100275.78
2022-12-27T04:14:55.680Z,100273.31
2022-12-27T04:17:42.167Z,100275.34
2022-12-27T04:20:28.872Z,100271.63
2022-12-27T04:23:16.745Z,100267.25
2022-12-27T04:26:02.889Z,100255.50
2022-12-27T04:28:50.064Z,100246.56
2022-12-27T04:31:36.320Z,100249.25
2022-12-27T04:34:23.194Z,100235.19
2022-12-27T04:36:52.287Z,100229.19
2022-12-27T04:39:22.922Z,100222.25
2022-12-27T04:42:14.816Z,100216.06
2022-12-27T04:45:01.088Z,100217.91
2022-12-27T04:47:48.513Z,100207.63
2022-12-27T04:50:44.091Z,100218.97
2022-12-27T04:53:31.890Z,100202.53
2022-12-27T04:56:02.917Z,100196.06
2022-12-27T04:58:34.544Z,100195.38
2022-12-27T05:01:22.873Z,100186.34
2022-12-27T05:03:54.634Z,100193.25
2022-12-27T05:06:23.771Z,100184.03
2022-12-27T05:09:10.065Z,100191.91
2022-12-27T05:11:57.968Z,100187.25
2022-12-27T05:14:27.010Z,100181.28
2022-12-27T05:16:56.958Z,100186.81
2022-12-27T05:19:25.963Z,100174.59
2022-12-27T05:22:08.949Z,100170.28
2022-12-27T05:24:55.431Z,100173.94
2022-12-27T05:27:26.639Z,100174.44
2022-12-27T05:29:55.579Z,100174.88
2022-12-27T05:32:24.556Z,100172.97
2022-12-27T05:34:53.657Z,100170.66
2022-12-27T05:37:22.674Z,100181.28
2022-12-27T05:39:51.667Z,100173.66
2022-12-27T05:42:20.875Z,100165.38
2022-12-27T05:44:51.360Z,100169.28
2022-12-27T05:47:20.357Z,100161.19
2022-12-27T05:49:49.455Z,100161.91
2022-12-27T05:52:18.706Z,100150.63
2022-12-27T05:54:48.293Z,100150.44
2022-12-27T05:57:17.493Z,100147.19
2022-12-27T05:59:46.443Z,100149.06
2022-12-27T06:02:17.167Z,100145.84
2022-12-27T06:04:46.436Z,100141.00
2022-12-27T06:07:16.220Z,100132.25
2022-12-27T06:09:45.459Z,100140.28
2022-12-27T06:12:14.520Z,100137.97
2022-12-27T06:14:43.487Z,100128.78
2022-12-27T06:17:12.617Z,100129.94
2022-12-27T06:19:43.095Z,100126.03
2022-12-27T06:22:12.111Z,100121.63
2022-12-27T06:24:41.265Z,100110.63
2022-12-27T06:27:10.397Z,100111.28
2022-12-27T06:29:39.441Z,100105.75
2022-12-27T06:32:08.585Z,100109.69
2022-12-27T06:34:37.596Z,100102.09
2022-12-27T06:37:08.177Z,100101.63
2022-12-27T06:39:37.164Z,100105.31
2022-12-27T06:42:06.379Z,100114.53
2022-12-27T06:44:35.366Z,100107.22
2022-12-27T06:47:04.786Z,100105.16
2022-12-27T06:49:34.157Z,100098.69
2022-12-27T06:52:03.275Z,100103.53
2022-12-27T06:54:33.925Z,100099.19
2022-12-27T06:57:03.140Z,100096.91
2022-12-27T06:59:32.171Z,100106.34
2022-12-27T07:02:01.362Z,100099.22
2022-12-27T07:04:30.655Z,100097.63
2022-12-27T07:06:59.685Z,100091.16
2022-12-27T07:09:29.466Z,100093.44
2022-12-27T07:12:00.108Z,100089.31
2022-12-27T07:14:29.197Z,100080.78
2022-12-27T07:16:58.343Z,100080.06
2022-12-27T07:19:27.390Z,100080.78
2022-12-27T07:21:56.432Z,100074.09
2022-12-27T07:24:25.665Z,100065.78
2022-12-27T07:26:54.914Z,100062.78
2022-12-27T07:29:25.323Z,100062.31
2022-12-27T07:31:54.421Z,100049.84
2022-12-27T07:34:23.648Z,100053.09
2022-12-27T07:36:53.024Z,100037.84
2022-12-27T07:39:21.988Z,100033.94
2022-12-27T07:41:50.958Z,100035.53
2022-12-27T07:44:20.795Z,100042.25
2022-12-27T07:46:51.417Z,100034.84
2022-12-27T07:49:20.573Z,100039.00
2022-12-27T07:51:49.551Z,100027.72
2022-12-27T07:54:18.612Z,100021.03
2022-12-27T07:56:47.870Z,100008.56
2022-12-27T07:59:17.097Z,100016.19
2022-12-27T08:02:03.843Z,100006.94
2022-12-27T08:04:35.693Z,100004.59
2022-12-27T08:07:10.370Z,99996.22
2022-12-27T08:09:42.500Z,99987.50
2022-12-27T08:12:13.654Z,99994.19
2022-12-27T08:14:43.010Z,99994.91
2022-12-27T08:17:18.643Z,99990.53
2022-12-27T08:19:50.145Z,99987.75
2022-12-27T08:22:20.245Z,99967.41
2022-12-27T08:24:49.709Z,99972.97
2022-12-27T08:27:23.019Z,99955.84
2022-12-27T08:29:52.133Z,99955.81
2022-12-27T08:32:21.283Z,99957.66
2022-12-27T08:34:52.008Z,99951.19
2022-12-27T08:37:21.660Z,99962.78
2022-12-27T08:39:50.676Z,99954.50
2022-12-27T08:42:19.645Z,99950.56
2022-12-27T08:44:48.640Z,99949.16
2022-12-27T08:47:20.009Z,99947.31
2022-12-27T08:49:49.366Z,99940.84
2022-12-27T08:52:19.833Z,99937.84
2022-12-27T08:54:48.908Z,99941.56
2022-12-27T08:57:18.120Z,99937.59
2022-12-27T08:59:47.725Z,99943.16
2022-12-27T09:02:17.104Z,99932.75
2022-12-27T09:04:46.242Z,99920.28
2022-12-27T09:07:15.661Z,99921.66
2022-12-27T09:09:46.003Z,99917.44
2022-12-27T09:12:15.011Z,99906.16
2022-12-27T09:14:44.035Z,99899.47
2022-12-27T09:17:13.216Z,99901.31
2022-12-27T09:19:42.213Z,99900.38
2022-12-27T09:22:11.307Z,99890.72
2022-12-27T09:24:40.471Z,99893.94
2022-12-27T09:27:10.938Z,99879.38
2022-12-27T09:29:44.606Z,99875.00
2022-12-27T09:32:17.171Z,99873.59
2022-12-27T09:34:46.183Z,99867.16
2022-12-27T09:37:16.089Z,99862.25
2022-12-27T09:39:45.317Z,99856.94
2022-12-27T09:42:52.194Z,99862.47
2022-12-27T09:45:21.941Z,99863.38
2022-12-27T09:47:58.342Z,99849.06
2022-12-27T09:50:32.008Z,99846.25
2022-12-27T09:53:06.713Z,99839.34
2022-12-27T09:55:44.404Z,99842.09
2022-12-27T09:58:30.478Z,99833.72
2022-12-27T10:00:59.475Z,99835.09
2022-12-27T10:03:31.294Z,99833.25
2022-12-27T10:06:19.511Z,99832.72
2022-12-27T10:08:56.142Z,99833.09
2022-12-27T10:11:39.166Z,99833.56
2022-12-27T10:14:24.792Z,99830.13
2022-12-27T10:16:58.927Z,99834.69
2022-12-27T10:19:38.024Z,99834.47
2022-12-27T10:22:25.414Z,99830.78
2022-12-27T10:24:57.931Z,99820.13
2022-12-27T10:27:29.165Z,99826.78
2022-12-27T10:30:01.055Z,99827.50
2022-12-27T10:32:30.049Z,99827.75
2022-12-27T10:35:02.272Z,99818.69
2022-12-27T10:37:32.778Z,99802.06
2022-12-27T10:40:10.564Z,99808.59
2022-12-27T10:42:42.122Z,99800.94
2022-12-27T10:45:32.442Z,99803.00
2022-12-27T10:48:21.554Z,99787.78
2022-12-27T10:50:55.720Z,99780.44
2022-12-27T10:53:35.135Z,99785.97
2022-12-27T10:56:27.945Z,99773.91
2022-12-27T10:59:06.915Z,99772.81
2022-12-27T11:01:37.571Z,99760.38
2022-12-27T11:04:21.005Z,99756.59
2022-12-27T11:06:52.753Z,99739.16
2022-12-27T11:09:29.342Z,99742.88
2022-12-27T11:12:18.304Z,99737.72
2022-12-27T11:15:00.231Z,99736.31
2022-12-27T11:17:37.942Z,99730.00
2022-12-27T11:20:22.057Z,99731.94
2022-12-27T11:22:55.060Z,99720.94
2022-12-27T11:25:24.822Z,99720.06
2022-12-27T11:27:57.433Z,99714.50
2022-12-27T11:30:31.713Z,99710.44
2022-12-27T11:33:06.353Z,99711.34
2022-12-27T11:35:46.467Z,99709.03
2022-12-27T11:38:24.704Z,99709.88
2022-12-27T11:41:01.722Z,99700.84
2022-12-27T11:43:36.187Z,99695.41
2022-12-27T11:46:12.023Z,99699.59
2022-12-27T11:48:45.569Z,99693.38
2022-12-27T11:51:42.305Z,99684.41
2022-12-27T11:54:35.288Z,99684.06
2022-12-27T11:57:19.612Z,99692.13
2022-12-27T12:00:01.523Z,99693.13
2022-12-27T12:02:45.058Z,99686.84
2022-12-27T12:05:57.596Z,99681.94
2022-12-27T12:09:11.967Z,99688.38
2022-12-27T12:11:56.854Z,99668.59
2022-12-27T12:15:01.207Z,99672.53
2022-12-27T12:17:46.577Z,99668.34
2022-12-27T12:20:39.067Z,99674.16
2022-12-27T12:23:13.997Z,99669.78
2022-12-27T12:26:17.897Z,99669.16
2022-12-27T12:29:32.045Z,99670.06
2022-12-27T12:32:34.330Z,99664.53
2022-12-27T12:35:25.246Z,99665.41
2022-12-27T12:38:05.123Z,99651.53
2022-12-27T12:41:15.197Z,99650.81
2022-12-27T12:44:16.090Z,99641.56
2022-12-27T12:46:53.131Z,99644.53
2022-12-27T12:49:51.280Z,99643.63
2022-12-27T12:52:54.887Z,99640.59
2022-12-27T12:55:42.612Z,99630.63
2022-12-27T12:58:25.721Z,99635.72
2022-12-27T13:01:13.367Z,99619.97
2022-12-27T13:03:58.419Z,99629.00
2022-12-27T13:06:44.979Z,99629.44
2022-12-27T13:09:25.760Z,99625.25
2022-12-27T13:12:04.562Z,99619.97
2022-12-27T13:14:50.445Z,99620.41
2022-12-27T13:17:26.716Z,99620.88
2022-12-27T13:20:10.688Z,99618.13
2022-12-27T13:22:54.142Z,99616.50
2022-12-27T13:25:35.074Z,99616.72
2022-12-27T13:28:19.743Z,99612.34
2022-12-27T13:30:59.191Z,99604.91
2022-12-27T13:33:37.200Z,99596.34
2022-12-27T13:36:20.100Z,99603.28
2022-12-27T13:39:08.641Z,99604.63
2022-12-27T13:41:51.441Z,99596.69
2022-12-27T13:44:37.676Z,99587.94
2022-12-27T13:47:36.447Z,99591.59
2022-12-27T13:50:24.747Z,99588.38
2022-12-27T13:53:05.877Z,99583.00
2022-12-27T13:55:53.923Z,99583.19
2022-12-27T13:59:03.242Z,99576.72
2022-12-27T14:01:53.578Z,99568.84
2022-12-27T14:04:59.874Z,99576.91
2022-12-27T14:07:49.893Z,99568.34
2022-12-27T14:10:29.284Z,99557.69
2022-12-27T14:13:01.457Z,99555.16
2022-12-27T14:15:49.074Z,99554.63
2022-12-27T14:18:37.221Z,99547.91
2022-12-27T14:21:20.444Z,99538.16
2022-12-27T14:24:14.184Z,99527.97
2022-12-27T14:27:21.248Z,99521.97
2022-12-27T14:30:21.363Z,99520.75
2022-12-27T14:33:26.016Z,99514.66
2022-12-27T14:36:32.878Z,99518.63
2022-12-27T14:39:27.676Z,99512.53
2022-12-27T14:42:18.243Z,99520.88
2022-12-27T14:45:19.440Z,99526.38
2022-12-27T14:48:05.706Z,99512.44
2022-12-27T14:50:59.055Z,99509.38
2022-12-27T14:54:15.335Z,99510.03
2022-12-27T14:56:56.848Z,99509.50
2022-12-27T14:59:37.905Z,99512.66
2022-12-27T15:02:30.707Z,99509.91
2022-12-27T15:05:17.757Z,99507.56
2022-12-27T15:08:31.842Z,99493.63
2022-12-27T15:11:22.706Z,99499.56
2022-12-27T15:14:11.338Z,99500.66
2022-12-27T15:16:55.964Z,99503.63
2022-12-27T15:19:45.425Z,99506.88
2022-12-27T15:22:24.595Z,99496.69
2022-12-27T15:25:04.076Z,99497.31
2022-12-27T15:27:41.618Z,99492.44
2022-12-27T15:30:22.408Z,99486.81
2022-12-27T15:33:01.406Z,99487.72
2022-12-27T15:35:53.368Z,99486.50
2022-12-27T15:38:41.910Z,99480.91
2022-12-27T15:41:28.334Z,99482.06
2022-12-27T15:44:32.584Z,99482.06
2022-12-27T15:47:28.899Z,99478.78
2022-12-27T15:50:28.890Z,99470.81
2022-12-27T15:53:26.768Z,99466.16
2022-12-27T15:56:37.331Z,99462.88
2022-12-27T15:59:45.720Z,99459.41
2022-12-27T16:02:36.066Z,99453.09
2022-12-27T16:05:44.150Z,99443.09
2022-12-27T16:08:27.339Z,99442.91
2022-12-27T16:10:57.966Z,99436.72
2022-12-27T16:13:41.400Z,99432.91
2022-12-27T16:16:35.259Z,99430.75
2022-12-27T16:19:35.427Z,99420.41
2022-12-27T16:22:24.985Z,99422.47
2022-12-27T16:24:54.091Z,99419.66
2022-12-27T16:27:31.275Z,99417.03
2022-12-27T16:30:01.012Z,99419.34
2022-12-27T16:32:30.448Z,99421.13
2022-12-27T16:35:14.874Z,99423.75
2022-12-27T16:37:52.143Z,99421.53
2022-12-27T16:40:37.656Z,99419.91
2022-12-27T16:43:31.803Z,99414.09
2022-12-27T16:46:23.227Z,99405.72
2022-12-27T16:49:13.280Z,99390.75
2022-12-27T16:52:00.721Z,99399.50
2022-12-27T16:54:38.374Z,99390.94
2022-12-27T16:57:34.923Z,99389.53
2022-12-27T17:00:22.835Z,99385.00
2022-12-27T17:02:52.543Z,99380.31
2022-12-27T17:05:36.778Z,99382.13
2022-12-27T17:08:18.413Z,99372.16
2022-12-27T17:11:00.001Z,99374.38
2022-12-27T17:13:36.918Z,99369.06
2022-12-27T17:16:10.099Z,99366.53
2022-12-27T17:18:46.122Z,99358.94
2022-12-27T17:21:23.349Z,99362.63
2022-12-27T17:23:59.520Z,99359.53
2022-12-27T17:26:59.710Z,99354.25
2022-12-27T17:29:51.240Z,99355.34
2022-12-27T17:32:35.113Z,99353.19
2022-12-27T17:35:10.606Z,99342.66
2022-12-27T17:37:48.029Z,99343.78
2022-12-27T17:40:32.938Z,99341.97
2022-12-27T17:43:32.365Z,99334.81
2022-12-27T17:46:19.855Z,99335.00
2022-12-27T17:48:48.935Z,99338.88
2022-12-27T17:51:24.081Z,99332.34
2022-12-27T17:54:12.379Z,99327.03
2022-12-27T17:57:05.145Z,99323.78
2022-12-27T17:59:35.534Z,99319.44
2022-12-27T18:02:08.116Z,99308.31
2022-12-27T18:04:40.499Z,99307.81
2022-12-27T18:07:13.070Z,99299.56
2022-12-27T18:09:47.240Z,99300.50
2022-12-27T18:12:24.583Z,99292.84
2022-12-27T18:15:00.297Z,99299.56
2022-12-27T18:17:35.281Z,99297.22
2022-12-27T18:20:28.724Z,99291.72
2022-12-27T18:23:13.811Z,99287.53
2022-12-27T18:25:58.203Z,99289.88
2022-12-27T18:28:33.536Z,99290.63
2022-12-27T18:31:12.646Z,99283.72
2022-12-27T18:33:45.784Z,99287.72
2022-12-27T18:36:21.001Z,99285.88
2022-12-27T18:38:54.354Z,99287.91
2022-12-27T18:41:25.246Z,99285.38
2022-12-27T18:44:01.136Z,99284.13
2022-12-27T18:46:32.883Z,99272.09
2022-12-27T18:49:02.597Z,99271.19
2022-12-27T18:51:34.363Z,99267.72
2022-12-27T18:54:03.759Z,99255.16
2022-12-27T18:56:35.917Z,99253.50
2022-12-27T18:59:20.421Z,99257.31
2022-12-27T19:01:50.723Z,99259.34
2022-12-27T19:04:23.172Z,99253.50
2022-12-27T19:06:57.331Z,99253.16
2022-12-27T19:09:30.311Z,99251.53
2022-12-27T19:12:01.632Z,99246.41
2022-12-27T19:14:46.333Z,99245.91
2022-12-27T19:17:19.871Z,99244.09
2022-12-27T19:19:51.559Z,99240.81
2022-12-27T19:22:34.522Z,99234.22
2022-12-27T19:25:06.171Z,99235.94
2022-12-27T19:27:35.271Z,99233.38
2022-12-27T19:30:06.763Z,99227.88
2022-12-27T19:32:36.613Z,99230.09
2022-12-27T19:35:06.715Z,99230.31
2022-12-27T19:37:36.049Z,99227.03
2022-12-27T19:40:06.614Z,99225.19
2022-12-27T19:42:36.105Z,99223.38
2022-12-27T19:45:07.129Z,99217.69
2022-12-27T19:47:39.920Z,99214.59
2022-12-27T19:50:10.980Z,99217.34
2022-12-27T19:52:40.692Z,99217.53
2022-12-27T19:55:17.689Z,99213.00
2022-12-27T19:57:46.788Z,99211.91
2022-12-27T20:00:19.396Z,99211.72
2022-12-27T20:02:48.658Z,99199.69
2022-12-27T20:05:17.889Z,99200.59
2022-12-27T20:08:15.730Z,99203.72
2022-12-27T20:10:44.838Z,99202.06
2022-12-27T20:13:14.032Z,99198.66
2022-12-27T20:15:44.953Z,99197.91
2022-12-27T20:18:14.324Z,99190.47
2022-12-27T20:20:43.572Z,99195.38
2022-12-27T20:23:13.175Z,99194.09
2022-12-27T20:25:44.573Z,99186.66
2022-12-27T20:32:41.730Z,99185.56
2022-12-27T20:35:11.375Z,99195.41
2022-12-27T20:37:40.415Z,99184.84
2022-12-27T20:40:11.266Z,99175.75
2022-12-27T20:42:40.337Z,99177.56
2022-12-27T20:45:10.281Z,99179.38
2022-12-27T20:47:40.890Z,99171.75
2022-12-27T20:50:11.005Z,99171.19
2022-12-27T20:52:40.222Z,99158.78
2022-12-27T20:55:10.803Z,99164.56
2022-12-27T20:57:42.657Z,99160.13
2022-12-27T21:00:13.583Z,99151.72
2022-12-27T21:02:44.257Z,99147.91
2022-12-27T21:05:15.278Z,99140.59
2022-12-27T21:07:44.560Z,99140.22
2022-12-27T21:10:13.711Z,99140.03
2022-12-27T21:12:42.732Z,99144.03
2022-12-27T21:15:12.541Z,99130.53
2022-12-27T21:17:41.683Z,99141.13
2022-12-27T21:20:13.580Z,99142.03
2022-12-27T21:22:42.586Z,99132.75
2022-12-27T21:25:11.950Z,99128.56
2022-12-27T21:27:42.136Z,99127.47
2022-12-27T21:30:13.583Z,99129.28
2022-12-27T21:32:42.657Z,99125.09
2022-12-27T21:35:13.258Z,99126.19
2022-12-27T21:37:42.355Z,99117.81
2022-12-27T21:40:13.280Z,99118.34
2022-12-27T21:42:42.383Z,99118.56
2022-12-27T21:45:12.336Z,99112.72
2022-12-27T21:47:41.373Z,99113.25
2022-12-27T21:50:12.584Z,99117.81
2022-12-27T21:52:41.670Z,99110.91
2022-12-27T21:55:11.382Z,99110.16
2022-12-27T21:57:40.381Z,99106.88
2022-12-27T22:00:10.760Z,99104.31
2022-12-27T22:02:39.853Z,99096.66
2022-12-27T22:05:09.568Z,99095.56
2022-12-27T22:07:39.971Z,99097.78
2022-12-27T22:10:09.838Z,99093.75
2022-12-27T22:12:38.947Z,99091.56
2022-12-27T22:15:08.907Z,99087.56
2022-12-27T22:17:37.905Z,99093.75
2022-12-27T22:20:07.889Z,99087.94
2022-12-27T22:22:37.331Z,99091.56
2022-12-27T22:25:10.218Z,99080.59
2022-12-27T22:27:39.232Z,99078.25
2022-12-27T22:30:08.919Z,99080.28
2022-12-27T22:32:37.946Z,99069.13
2022-12-27T22:35:07.589Z,99074.06
2022-12-27T22:37:38.032Z,99071.88
2022-12-27T22:40:41.251Z,99072.06
2022-12-27T22:42:59.140Z,99067.13
2022-12-27T22:45:28.644Z,99060.56
2022-12-27T22:47:58.139Z,99061.31
2022-12-27T22:50:27.224Z,99066.41
2022-12-27T22:52:56.271Z,99056.19
2022-12-27T22:55:26.691Z,99057.28
2022-12-27T22:57:55.859Z,99055.09
2022-12-27T23:00:24.966Z,99050.72
2022-12-27T23:02:53.925Z,99051.78
2022-12-27T23:05:22.975Z,99054.19
2022-12-27T23:08:04.755Z,99056.91
2022-12-27T23:10:37.022Z,99046.69
2022-12-27T23:13:06.052Z,99049.06
2022-12-27T23:15:35.137Z,99048.16
2022-12-27T23:18:04.199Z,99045.22
2022-12-27T23:20:35.301Z,99045.06
2022-12-27T23:23:04.338Z,99041.22
2022-12-27T23:25:33.428Z,99035.75
2022-12-27T23:28:03.863Z,99039.00
2022-12-27T23:30:32.986Z,99027.19
2022-12-27T23:33:02.080Z,99029.72
2022-12-27T23:35:31.207Z,99031.34
2022-12-27T23:38:00.214Z,99022.97
2022-12-27T23:40:29.395Z,99026.97
2022-12-27T23:43:12.450Z,99025.53
2022-12-27T23:45:49.354Z,99016.22
2022-12-27T23:48:18.550Z,99017.13
2022-12-27T23:50:48.226Z,99016.59
2022-12-27T23:53:17.397Z,99014.19
2022-12-27T23:55:46.495Z,99015.09
2022-12-27T23:58:15.540Z,99015.69
